sensor_id;sensor_type;location;lat;lon;timestamp;pressure;altitude;pressure_sealevel;temperature;humidity
35224;BME280;21367;51.930;8.112;2024-01-16T00:01:20;99800.50;;;0.12;100.00
35224;BME280;21367;51.930;8.112;2024-01-16T00:06:23;99788.06;;;0.27;100.00
35224;BME280;21367;51.930;8.112;2024-01-16T00:11:27;99788.41;;;0.20;100.00
35224;BME280;21367;51.930;8.112;2024-01-16T00:16:32;99801.59;;;-0.09;100.00
35224;BME280;21367;51.930;8.112;2024-01-16T00:21:38;99794.47;;;0.22;100.00
35224;BME280;21367;51.930;8.112;2024-01-16T00:26:41;99813.59;;;0.43;100.00
35224;BME280;21367;51.930;8.112;2024-01-16T00:31:47;99821.72;;;0.14;100.00
35224;BME280;21367;51.930;8.112;2024-01-16T00:36:50;99837.91;;;-0.07;100.00
35224;BME280;21367;51.930;8.112;2024-01-16T00:41:54;99851.69;;;0.21;100.00
35224;BME280;21367;51.930;8.112;2024-01-16T00:47:00;99876.88;;;-0.04;100.00
35224;BME280;21367;51.930;8.112;2024-01-16T00:52:06;99874.84;;;0.28;100.00
35224;BME280;21367;51.930;8.112;2024-01-16T00:57:09;99897.03;;;0.32;100.00
35224;BME280;21367;51.930;8.112;2024-01-16T01:02:15;99907.88;;;0.42;100.00
35224;BME280;21367;51.930;8.112;2024-01-16T01:07:19;99930.97;;;0.35;100.00
35224;BME280;21367;51.930;8.112;2024-01-16T01:12:22;99952.50;;;0.42;100.00
35224;BME280;21367;51.930;8.112;2024-01-16T01:17:28;99954.19;;;0.18;100.00
35224;BME280;21367;51.930;8.112;2024-01-16T01:22:32;99964.63;;;0.11;100.00
35224;BME280;21367;51.930;8.112;2024-01-16T01:27:35;99953.09;;;0.14;100.00
35224;BME280;21367;51.930;8.112;2024-01-16T01:32:41;99964.41;;;0.19;100.00
35224;BME280;21367;51.930;8.112;2024-01-16T01:37:45;99953.34;;;-0.06;100.00
35224;BME280;21367;51.930;8.112;2024-01-16T01:42:48;99964.19;;;-0.07;100.00
35224;BME280;21367;51.930;8.112;2024-01-16T01:47:54;99957.16;;;-0.23;100.00
35224;BME280;21367;51.930;8.112;2024-01-16T01:52:58;99963.94;;;-0.22;100.00
35224;BME280;21367;51.930;8.112;2024-01-16T01:58:02;99973.28;;;-0.21;100.00
35224;BME280;21367;51.930;8.112;2024-01-16T02:03:09;99976.16;;;-0.05;100.00
35224;BME280;21367;51.930;8.112;2024-01-16T02:08:13;99984.59;;;-0.04;100.00
35224;BME280;21367;51.930;8.112;2024-01-16T02:13:16;99982.06;;;-0.04;100.00
35224;BME280;21367;51.930;8.112;2024-01-16T02:18:26;99981.00;;;0.04;100.00
35224;BME280;21367;51.930;8.112;2024-01-16T02:23:32;99987.56;;;-0.10;100.00
35224;BME280;21367;51.930;8.112;2024-01-16T02:28:36;99985.72;;;0.11;100.00
35224;BME280;21367;51.930;8.112;2024-01-16T02:39:16;99996.34;;;-0.05;100.00
35224;BME280;21367;51.930;8.112;2024-01-16T02:44:20;99993.41;;;0.13;100.00
35224;BME280;21367;51.930;8.112;2024-01-16T02:49:23;99993.94;;;0.20;100.00
35224;BME280;21367;51.930;8.112;2024-01-16T02:54:30;100003.16;;;-0.27;100.00
35224;BME280;21367;51.930;8.112;2024-01-16T02:59:33;100012.13;;;-0.19;100.00
35224;BME280;21367;51.930;8.112;2024-01-16T03:04:37;100013.03;;;-0.07;100.00
35224;BME280;21367;51.930;8.112;2024-01-16T03:09:43;100005.09;;;-0.35;100.00
35224;BME280;21367;51.930;8.112;2024-01-16T03:14:46;100008.44;;;-0.12;100.00
35224;BME280;21367;51.930;8.112;2024-01-16T03:19:50;100014.31;;;-0.35;100.00
35224;BME280;21367;51.930;8.112;2024-01-16T03:24:56;100007.53;;;-0.36;100.00
35224;BME280;21367;51.930;8.112;2024-01-16T03:29:59;100005.22;;;-0.33;100.00
35224;BME280;21367;51.930;8.112;2024-01-16T03:35:04;99995.25;;;-0.20;100.00
35224;BME280;21367;51.930;8.112;2024-01-16T03:40:10;99991.41;;;-0.27;100.00
35224;BME280;21367;51.930;8.112;2024-01-16T03:45:14;99988.44;;;-0.33;100.00
35224;BME280;21367;51.930;8.112;2024-01-16T03:50:17;99985.25;;;-0.30;100.00
35224;BME280;21367;51.930;8.112;2024-01-16T03:55:24;99997.97;;;-0.40;100.00
35224;BME280;21367;51.930;8.112;2024-01-16T04:00:27;99993.47;;;-0.33;100.00
35224;BME280;21367;51.930;8.112;2024-01-16T04:05:30;100006.00;;;-0.22;100.00
35224;BME280;21367;51.930;8.112;2024-01-16T04:10:36;100015.81;;;-0.15;100.00
35224;BME280;21367;51.930;8.112;2024-01-16T04:15:40;100023.59;;;-0.12;100.00
35224;BME280;21367;51.930;8.112;2024-01-16T04:20:43;100025.31;;;-0.23;100.00
35224;BME280;21367;51.930;8.112;2024-01-16T04:25:49;100029.81;;;-0.19;100.00
35224;BME280;21367;51.930;8.112;2024-01-16T04:30:52;100024.44;;;-0.24;100.00
35224;BME280;21367;51.930;8.112;2024-01-16T04:35:55;100022.91;;;-0.33;100.00
35224;BME280;21367;51.930;8.112;2024-01-16T04:41:03;100020.34;;;-0.45;100.00
35224;BME280;21367;51.930;8.112;2024-01-16T04:46:07;100019.28;;;-0.37;100.00
35224;BME280;21367;51.930;8.112;2024-01-16T04:51:10;100018.06;;;-0.30;100.00
35224;BME280;21367;51.930;8.112;2024-01-16T04:56:16;100016.00;;;-0.24;100.00
35224;BME280;21367;51.930;8.112;2024-01-16T05:01:19;100010.53;;;-0.18;100.00
35224;BME280;21367;51.930;8.112;2024-01-16T05:06:24;100013.09;;;-0.52;100.00
35224;BME280;21367;51.930;8.112;2024-01-16T05:11:29;99986.47;;;-0.25;100.00
35224;BME280;21367;51.930;8.112;2024-01-16T05:16:33;99980.72;;;-0.46;100.00
35224;BME280;21367;51.930;8.112;2024-01-16T05:21:37;99967.34;;;-0.33;100.00
35224;BME280;21367;51.930;8.112;2024-01-16T05:26:43;99977.13;;;-0.26;100.00
35224;BME280;21367;51.930;8.112;2024-01-16T05:31:46;99976.94;;;-0.06;100.00
35224;BME280;21367;51.930;8.112;2024-01-16T05:36:50;99966.47;;;-0.22;100.00
35224;BME280;21367;51.930;8.112;2024-01-16T05:41:56;99956.16;;;-0.37;100.00
35224;BME280;21367;51.930;8.112;2024-01-16T05:47:00;99955.38;;;-0.36;100.00
35224;BME280;21367;51.930;8.112;2024-01-16T05:52:03;99949.59;;;-0.11;100.00
35224;BME280;21367;51.930;8.112;2024-01-16T05:57:10;99950.56;;;-0.33;100.00
35224;BME280;21367;51.930;8.112;2024-01-16T06:02:13;99951.88;;;-0.14;100.00
35224;BME280;21367;51.930;8.112;2024-01-16T06:07:17;99949.47;;;-0.25;100.00
35224;BME280;21367;51.930;8.112;2024-01-16T06:12:23;99957.59;;;-0.17;100.00
35224;BME280;21367;51.930;8.112;2024-01-16T06:17:26;99967.25;;;-0.23;100.00
35224;BME280;21367;51.930;8.112;2024-01-16T06:22:30;99967.38;;;-0.21;100.00
35224;BME280;21367;51.930;8.112;2024-01-16T06:27:36;99963.72;;;-0.37;100.00
35224;BME280;21367;51.930;8.112;2024-01-16T06:32:39;99954.72;;;-0.33;100.00
35224;BME280;21367;51.930;8.112;2024-01-16T06:37:42;99965.19;;;-0.05;100.00
35224;BME280;21367;51.930;8.112;2024-01-16T06:42:49;99969.13;;;-0.09;100.00
35224;BME280;21367;51.930;8.112;2024-01-16T06:47:52;99974.28;;;-0.31;100.00
35224;BME280;21367;51.930;8.112;2024-01-16T06:52:55;99970.00;;;-0.20;100.00
35224;BME280;21367;51.930;8.112;2024-01-16T06:58:05;99966.69;;;-0.19;100.00
35224;BME280;21367;51.930;8.112;2024-01-16T07:03:10;99976.28;;;-0.15;100.00
35224;BME280;21367;51.930;8.112;2024-01-16T07:08:14;99988.13;;;-0.14;100.00
35224;BME280;21367;51.930;8.112;2024-01-16T07:13:20;99975.16;;;-0.07;100.00
35224;BME280;21367;51.930;8.112;2024-01-16T07:18:23;99992.75;;;-0.08;100.00
35224;BME280;21367;51.930;8.112;2024-01-16T07:23:27;99990.63;;;-0.26;100.00
35224;BME280;21367;51.930;8.112;2024-01-16T07:28:33;99987.03;;;-0.06;100.00
35224;BME280;21367;51.930;8.112;2024-01-16T07:33:36;99993.28;;;-0.12;100.00
35224;BME280;21367;51.930;8.112;2024-01-16T07:38:40;100005.78;;;-0.26;100.00
35224;BME280;21367;51.930;8.112;2024-01-16T07:43:45;100004.59;;;-0.07;100.00
35224;BME280;21367;51.930;8.112;2024-01-16T07:48:49;100013.25;;;-0.04;100.00
35224;BME280;21367;51.930;8.112;2024-01-16T07:54:03;100022.47;;;-0.16;100.00
35224;BME280;21367;51.930;8.112;2024-01-16T07:59:10;100027.06;;;-0.22;100.00
35224;BME280;21367;51.930;8.112;2024-01-16T08:04:14;100037.88;;;-0.01;100.00
35224;BME280;21367;51.930;8.112;2024-01-16T08:09:17;100050.63;;;0.01;100.00
35224;BME280;21367;51.930;8.112;2024-01-16T08:14:24;100067.50;;;-0.10;100.00
35224;BME280;21367;51.930;8.112;2024-01-16T08:19:29;100076.72;;;-0.11;100.00
35224;BME280;21367;51.930;8.112;2024-01-16T08:24:33;100061.47;;;-0.01;100.00
35224;BME280;21367;51.930;8.112;2024-01-16T08:29:38;100063.78;;;0.08;100.00
35224;BME280;21367;51.930;8.112;2024-01-16T08:34:42;100089.63;;;0.16;100.00
35224;BME280;21367;51.930;8.112;2024-01-16T08:39:45;100086.59;;;-0.14;100.00
35224;BME280;21367;51.930;8.112;2024-01-16T08:44:51;100085.44;;;0.05;100.00
35224;BME280;21367;51.930;8.112;2024-01-16T08:49:54;100092.00;;;0.03;100.00
35224;BME280;21367;51.930;8.112;2024-01-16T08:54:58;100104.75;;;0.04;100.00
35224;BME280;21367;51.930;8.112;2024-01-16T09:00:04;100118.28;;;0.28;100.00
35224;BME280;21367;51.930;8.112;2024-01-16T09:05:09;100114.91;;;0.39;100.00
35224;BME280;21367;51.930;8.112;2024-01-16T09:10:13;100125.88;;;0.28;100.00
35224;BME280;21367;51.930;8.112;2024-01-16T09:15:20;100126.22;;;0.33;100.00
35224;BME280;21367;51.930;8.112;2024-01-16T09:20:23;100123.44;;;0.18;100.00
35224;BME280;21367;51.930;8.112;2024-01-16T09:25:26;100131.97;;;0.42;100.00
35224;BME280;21367;51.930;8.112;2024-01-16T09:30:32;100133.69;;;0.19;100.00
35224;BME280;21367;51.930;8.112;2024-01-16T09:35:36;100127.47;;;0.38;100.00
35224;BME280;21367;51.930;8.112;2024-01-16T09:40:39;100131.84;;;0.29;100.00
35224;BME280;21367;51.930;8.112;2024-01-16T09:45:45;100128.66;;;0.55;100.00
35224;BME280;21367;51.930;8.112;2024-01-16T09:50:50;100126.66;;;0.27;100.00
35224;BME280;21367;51.930;8.112;2024-01-16T09:55:54;100139.19;;;0.37;100.00
35224;BME280;21367;51.930;8.112;2024-01-16T10:01:03;100134.47;;;0.42;100.00
35224;BME280;21367;51.930;8.112;2024-01-16T10:06:07;100137.56;;;0.38;100.00
35224;BME280;21367;51.930;8.112;2024-01-16T10:11:11;100140.75;;;0.47;100.00
35224;BME280;21367;51.930;8.112;2024-01-16T10:16:17;100143.34;;;0.25;100.00
35224;BME280;21367;51.930;8.112;2024-01-16T10:21:22;100147.44;;;0.23;100.00
35224;BME280;21367;51.930;8.112;2024-01-16T10:26:29;100143.50;;;0.38;100.00
35224;BME280;21367;51.930;8.112;2024-01-16T10:31:35;100142.78;;;0.17;100.00
35224;BME280;21367;51.930;8.112;2024-01-16T10:36:40;100142.63;;;0.38;100.00
35224;BME280;21367;51.930;8.112;2024-01-16T10:41:53;100151.72;;;0.36;100.00
35224;BME280;21367;51.930;8.112;2024-01-16T10:47:11;100160.53;;;0.41;100.00
35224;BME280;21367;51.930;8.112;2024-01-16T10:52:17;100145.91;;;0.37;100.00
35224;BME280;21367;51.930;8.112;2024-01-16T10:57:21;100151.31;;;0.41;100.00
35224;BME280;21367;51.930;8.112;2024-01-16T11:02:28;100158.97;;;0.43;100.00
35224;BME280;21367;51.930;8.112;2024-01-16T11:07:36;100170.72;;;0.19;100.00
35224;BME280;21367;51.930;8.112;2024-01-16T11:12:40;100159.06;;;0.21;100.00
35224;BME280;21367;51.930;8.112;2024-01-16T11:17:47;100152.53;;;0.01;100.00
35224;BME280;21367;51.930;8.112;2024-01-16T11:22:50;100136.38;;;-0.01;100.00
35224;BME280;21367;51.930;8.112;2024-01-16T11:28:07;100134.66;;;0.10;100.00
35224;BME280;21367;51.930;8.112;2024-01-16T11:38:31;100130.91;;;0.05;100.00
35224;BME280;21367;51.930;8.112;2024-01-16T11:43:36;100140.41;;;0.19;100.00
35224;BME280;21367;51.930;8.112;2024-01-16T11:48:39;100138.00;;;0.32;100.00
35224;BME280;21367;51.930;8.112;2024-01-16T11:53:46;100158.38;;;0.12;100.00
35224;BME280;21367;51.930;8.112;2024-01-16T11:58:52;100160.44;;;-0.06;100.00
35224;BME280;21367;51.930;8.112;2024-01-16T12:04:03;100164.47;;;0.26;100.00
35224;BME280;21367;51.930;8.112;2024-01-16T12:09:13;100168.19;;;0.19;100.00
35224;BME280;21367;51.930;8.112;2024-01-16T12:14:17;100158.97;;;0.19;100.00
35224;BME280;21367;51.930;8.112;2024-01-16T12:19:21;100152.22;;;0.08;100.00
35224;BME280;21367;51.930;8.112;2024-01-16T12:24:27;100149.81;;;0.10;100.00
35224;BME280;21367;51.930;8.112;2024-01-16T12:29:30;100136.28;;;-0.03;100.00
35224;BME280;21367;51.930;8.112;2024-01-16T12:34:34;100116.53;;;0.04;100.00
35224;BME280;21367;51.930;8.112;2024-01-16T12:39:41;100121.56;;;0.15;100.00
35224;BME280;21367;51.930;8.112;2024-01-16T12:44:44;100115.56;;;0.13;100.00
35224;BME280;21367;51.930;8.112;2024-01-16T12:49:48;100115.25;;;0.32;100.00
35224;BME280;21367;51.930;8.112;2024-01-16T12:55:00;100111.53;;;0.51;100.00
35224;BME280;21367;51.930;8.112;2024-01-16T13:00:20;100107.00;;;0.46;100.00
35224;BME280;21367;51.930;8.112;2024-01-16T13:05:23;100111.63;;;0.64;100.00
35224;BME280;21367;51.930;8.112;2024-01-16T13:10:29;100108.34;;;0.41;100.00
35224;BME280;21367;51.930;8.112;2024-01-16T13:15:33;100117.13;;;0.58;100.00
35224;BME280;21367;51.930;8.112;2024-01-16T13:20:37;100104.69;;;0.50;100.00
35224;BME280;21367;51.930;8.112;2024-01-16T13:25:44;100103.59;;;0.46;100.00
35224;BME280;21367;51.930;8.112;2024-01-16T13:30:49;100108.00;;;0.49;100.00
35224;BME280;21367;51.930;8.112;2024-01-16T13:35:52;100105.25;;;0.57;100.00
35224;BME280;21367;51.930;8.112;2024-01-16T13:40:58;100104.59;;;0.48;100.00
35224;BME280;21367;51.930;8.112;2024-01-16T13:46:02;100101.50;;;0.52;100.00
35224;BME280;21367;51.930;8.112;2024-01-16T13:51:06;100090.97;;;0.58;100.00
35224;BME280;21367;51.930;8.112;2024-01-16T13:56:12;100083.91;;;0.89;100.00
35224;BME280;21367;51.930;8.112;2024-01-16T14:01:15;100085.44;;;0.87;100.00
35224;BME280;21367;51.930;8.112;2024-01-16T14:06:20;100086.28;;;0.99;100.00
35224;BME280;21367;51.930;8.112;2024-01-16T14:11:26;100075.28;;;0.99;100.00
35224;BME280;21367;51.930;8.112;2024-01-16T14:16:29;100071.81;;;1.72;100.00
35224;BME280;21367;51.930;8.112;2024-01-16T14:21:32;100067.28;;;1.79;100.00
35224;BME280;21367;51.930;8.112;2024-01-16T14:26:38;100067.06;;;2.54;100.00
35224;BME280;21367;51.930;8.112;2024-01-16T14:31:44;100082.03;;;1.60;100.00
35224;BME280;21367;51.930;8.112;2024-01-16T14:36:49;100075.00;;;1.19;100.00
35224;BME280;21367;51.930;8.112;2024-01-16T14:41:56;100079.53;;;1.23;100.00
35224;BME280;21367;51.930;8.112;2024-01-16T14:47:03;100086.94;;;0.97;100.00
35224;BME280;21367;51.930;8.112;2024-01-16T14:52:09;100087.41;;;0.91;100.00
35224;BME280;21367;51.930;8.112;2024-01-16T14:57:15;100083.25;;;0.80;100.00
35224;BME280;21367;51.930;8.112;2024-01-16T15:02:18;100073.94;;;1.41;100.00
35224;BME280;21367;51.930;8.112;2024-01-16T15:07:22;100079.13;;;1.42;100.00
35224;BME280;21367;51.930;8.112;2024-01-16T15:12:29;100069.16;;;0.95;100.00
35224;BME280;21367;51.930;8.112;2024-01-16T15:17:33;100057.38;;;0.96;100.00
35224;BME280;21367;51.930;8.112;2024-01-16T15:22:36;100055.44;;;0.56;100.00
35224;BME280;21367;51.930;8.112;2024-01-16T15:27:43;100054.19;;;0.86;100.00
35224;BME280;21367;51.930;8.112;2024-01-16T15:32:46;100069.16;;;0.83;100.00
35224;BME280;21367;51.930;8.112;2024-01-16T15:37:50;100072.56;;;0.72;100.00
35224;BME280;21367;51.930;8.112;2024-01-16T15:42:57;100067.34;;;0.45;100.00
35224;BME280;21367;51.930;8.112;2024-01-16T15:48:01;100069.53;;;0.29;100.00
35224;BME280;21367;51.930;8.112;2024-01-16T15:53:05;100069.94;;;0.12;100.00
35224;BME280;21367;51.930;8.112;2024-01-16T15:58:11;100067.19;;;0.09;100.00
35224;BME280;21367;51.930;8.112;2024-01-16T16:03:15;100066.53;;;0.11;100.00
35224;BME280;21367;51.930;8.112;2024-01-16T16:08:18;100071.88;;;-0.19;100.00
35224;BME280;21367;51.930;8.112;2024-01-16T16:13:25;100074.09;;;-0.01;100.00
35224;BME280;21367;51.930;8.112;2024-01-16T16:18:31;100071.63;;;-0.22;100.00
35224;BME280;21367;51.930;8.112;2024-01-16T16:23:37;100081.50;;;-0.26;100.00
35224;BME280;21367;51.930;8.112;2024-01-16T16:28:43;100083.28;;;-0.25;100.00
35224;BME280;21367;51.930;8.112;2024-01-16T16:33:46;100084.50;;;-0.31;100.00
35224;BME280;21367;51.930;8.112;2024-01-16T16:38:49;100082.66;;;-0.44;100.00
35224;BME280;21367;51.930;8.112;2024-01-16T16:43:55;100083.19;;;-0.14;100.00
35224;BME280;21367;51.930;8.112;2024-01-16T16:49:00;100085.13;;;-0.22;100.00
35224;BME280;21367;51.930;8.112;2024-01-16T16:54:03;100086.16;;;-0.20;100.00
35224;BME280;21367;51.930;8.112;2024-01-16T16:59:09;100083.13;;;-0.38;100.00
35224;BME280;21367;51.930;8.112;2024-01-16T17:04:13;100084.31;;;-0.44;100.00
35224;BME280;21367;51.930;8.112;2024-01-16T17:09:16;100074.44;;;-0.53;100.00
35224;BME280;21367;51.930;8.112;2024-01-16T17:14:24;100089.28;;;-0.68;100.00
35224;BME280;21367;51.930;8.112;2024-01-16T17:19:27;100093.25;;;-0.60;100.00
35224;BME280;21367;51.930;8.112;2024-01-16T17:24:31;100092.75;;;-0.78;100.00
35224;BME280;21367;51.930;8.112;2024-01-16T17:29:38;100077.78;;;-0.86;100.00
35224;BME280;21367;51.930;8.112;2024-01-16T17:34:41;100082.66;;;-0.78;100.00
35224;BME280;21367;51.930;8.112;2024-01-16T17:39:45;100077.53;;;-0.89;100.00
35224;BME280;21367;51.930;8.112;2024-01-16T17:44:51;100072.72;;;-0.86;100.00
35224;BME280;21367;51.930;8.112;2024-01-16T17:49:58;100066.97;;;-0.96;100.00
35224;BME280;21367;51.930;8.112;2024-01-16T17:55:03;100054.72;;;-0.91;100.00
35224;BME280;21367;51.930;8.112;2024-01-16T18:00:12;100049.97;;;-0.98;100.00
35224;BME280;21367;51.930;8.112;2024-01-16T18:05:15;100044.69;;;-1.01;100.00
35224;BME280;21367;51.930;8.112;2024-01-16T18:10:19;100041.94;;;-1.04;100.00
35224;BME280;21367;51.930;8.112;2024-01-16T18:15:25;100039.13;;;-0.97;100.00
35224;BME280;21367;51.930;8.112;2024-01-16T18:20:32;100046.72;;;-1.07;100.00
35224;BME280;21367;51.930;8.112;2024-01-16T18:25:35;100039.22;;;-1.18;100.00
35224;BME280;21367;51.930;8.112;2024-01-16T18:30:41;100041.41;;;-1.22;100.00
35224;BME280;21367;51.930;8.112;2024-01-16T18:35:44;100039.16;;;-1.07;100.00
35224;BME280;21367;51.930;8.112;2024-01-16T18:40:48;100032.94;;;-1.23;100.00
35224;BME280;21367;51.930;8.112;2024-01-16T18:45:55;100031.25;;;-1.34;100.00
35224;BME280;21367;51.930;8.112;2024-01-16T18:50:58;100030.66;;;-1.20;100.00
35224;BME280;21367;51.930;8.112;2024-01-16T18:56:01;100035.91;;;-1.38;100.00
35224;BME280;21367;51.930;8.112;2024-01-16T19:01:08;100023.53;;;-1.25;100.00
35224;BME280;21367;51.930;8.112;2024-01-16T19:06:11;100018.41;;;-1.37;100.00
35224;BME280;21367;51.930;8.112;2024-01-16T19:11:15;100016.38;;;-1.41;100.00
35224;BME280;21367;51.930;8.112;2024-01-16T19:16:22;100013.59;;;-1.34;100.00
35224;BME280;21367;51.930;8.112;2024-01-16T19:21:25;100019.72;;;-1.52;100.00
35224;BME280;21367;51.930;8.112;2024-01-16T19:26:30;100014.41;;;-1.45;100.00
35224;BME280;21367;51.930;8.112;2024-01-16T19:31:37;100004.63;;;-1.52;100.00
35224;BME280;21367;51.930;8.112;2024-01-16T19:36:40;100005.06;;;-1.68;100.00
35224;BME280;21367;51.930;8.112;2024-01-16T19:41:44;99998.13;;;-1.38;100.00
35224;BME280;21367;51.930;8.112;2024-01-16T19:46:50;99997.59;;;-1.56;100.00
35224;BME280;21367;51.930;8.112;2024-01-16T19:51:54;99982.81;;;-1.30;100.00
35224;BME280;21367;51.930;8.112;2024-01-16T19:56:58;99984.56;;;-1.51;100.00
35224;BME280;21367;51.930;8.112;2024-01-16T20:02:05;99976.38;;;-1.48;100.00
35224;BME280;21367;51.930;8.112;2024-01-16T20:07:11;99972.03;;;-1.39;100.00
35224;BME280;21367;51.930;8.112;2024-01-16T20:12:15;99968.50;;;-1.63;100.00
35224;BME280;21367;51.930;8.112;2024-01-16T20:17:22;99964.69;;;-1.58;100.00
35224;BME280;21367;51.930;8.112;2024-01-16T20:22:26;99957.19;;;-1.68;100.00
35224;BME280;21367;51.930;8.112;2024-01-16T20:27:31;99954.84;;;-1.77;100.00
35224;BME280;21367;51.930;8.112;2024-01-16T20:32:37;99944.00;;;-1.76;100.00
35224;BME280;21367;51.930;8.112;2024-01-16T20:37:43;99934.13;;;-1.63;100.00
35224;BME280;21367;51.930;8.112;2024-01-16T20:42:47;99921.22;;;-1.77;100.00
35224;BME280;21367;51.930;8.112;2024-01-16T20:47:53;99907.84;;;-1.76;100.00
35224;BME280;21367;51.930;8.112;2024-01-16T20:52:57;99914.06;;;-1.83;100.00
35224;BME280;21367;51.930;8.112;2024-01-16T20:58:01;99909.16;;;-1.81;100.00
35224;BME280;21367;51.930;8.112;2024-01-16T21:03:07;99897.66;;;-2.10;100.00
35224;BME280;21367;51.930;8.112;2024-01-16T21:08:12;99893.13;;;-2.04;100.00
35224;BME280;21367;51.930;8.112;2024-01-16T21:13:16;99883.91;;;-1.93;100.00
35224;BME280;21367;51.930;8.112;2024-01-16T21:18:22;99894.84;;;-1.93;100.00
35224;BME280;21367;51.930;8.112;2024-01-16T21:23:28;99888.78;;;-1.95;100.00
35224;BME280;21367;51.930;8.112;2024-01-16T21:28:32;99887.56;;;-2.00;100.00
35224;BME280;21367;51.930;8.112;2024-01-16T21:33:38;99890.00;;;-2.12;100.00
35224;BME280;21367;51.930;8.112;2024-01-16T21:38:42;99881.72;;;-1.89;100.00
35224;BME280;21367;51.930;8.112;2024-01-16T21:43:46;99887.19;;;-2.04;100.00
35224;BME280;21367;51.930;8.112;2024-01-16T21:48:52;99878.53;;;-2.08;100.00
35224;BME280;21367;51.930;8.112;2024-01-16T21:53:55;99872.88;;;-2.05;100.00
35224;BME280;21367;51.930;8.112;2024-01-16T21:58:59;99863.16;;;-2.01;100.00
35224;BME280;21367;51.930;8.112;2024-01-16T22:04:07;99862.31;;;-2.12;100.00
35224;BME280;21367;51.930;8.112;2024-01-16T22:09:11;99848.34;;;-2.08;100.00
35224;BME280;21367;51.930;8.112;2024-01-16T22:14:17;99836.34;;;-2.00;100.00
35224;BME280;21367;51.930;8.112;2024-01-16T22:19:24;99831.72;;;-2.06;100.00
35224;BME280;21367;51.930;8.112;2024-01-16T22:24:28;99817.97;;;-1.99;100.00
35224;BME280;21367;51.930;8.112;2024-01-16T22:29:31;99810.34;;;-2.11;100.00
35224;BME280;21367;51.930;8.112;2024-01-16T22:34:38;99811.66;;;-1.94;100.00
35224;BME280;21367;51.930;8.112;2024-01-16T22:39:41;99810.75;;;-1.95;100.00
35224;BME280;21367;51.930;8.112;2024-01-16T22:44:45;99804.13;;;-2.04;100.00
35224;BME280;21367;51.930;8.112;2024-01-16T22:49:51;99783.59;;;-2.21;100.00
35224;BME280;21367;51.930;8.112;2024-01-16T22:54:54;99785.16;;;-2.33;100.00
35224;BME280;21367;51.930;8.112;2024-01-16T22:59:58;99781.69;;;-1.91;100.00
35224;BME280;21367;51.930;8.112;2024-01-16T23:05:04;99768.66;;;-1.86;100.00
35224;BME280;21367;51.930;8.112;2024-01-16T23:10:08;99757.97;;;-1.71;100.00
35224;BME280;21367;51.930;8.112;2024-01-16T23:15:11;99751.84;;;-1.63;100.00
35224;BME280;21367;51.930;8.112;2024-01-16T23:20:18;99744.72;;;-2.02;100.00
35224;BME280;21367;51.930;8.112;2024-01-16T23:25:22;99736.59;;;-1.76;100.00
35224;BME280;21367;51.930;8.112;2024-01-16T23:30:26;99736.31;;;-1.57;100.00
35224;BME280;21367;51.930;8.112;2024-01-16T23:35:33;99726.19;;;-1.81;100.00
35224;BME280;21367;51.930;8.112;2024-01-16T23:40:36;99724.56;;;-1.80;100.00
35224;BME280;21367;51.930;8.112;2024-01-16T23:45:40;99718.16;;;-1.53;100.00
35224;BME280;21367;51.930;8.112;2024-01-16T23:50:48;99697.78;;;-2.02;100.00
35224;BME280;21367;51.930;8.112;2024-01-16T23:55:52;99698.63;;;-2.01;100.00
